createdAt,value
2022-10-08T00:00:25.520Z,11.50
2022-10-08T00:04:28.565Z,11.54
2022-10-08T00:08:32.892Z,11.61
2022-10-08T00:12:35.754Z,11.63
2022-10-08T00:16:41.738Z,11.59
2022-10-08T00:20:44.974Z,11.51
2022-10-08T00:24:49.916Z,11.48
2022-10-08T00:28:54.736Z,11.40
2022-10-08T00:33:00.054Z,11.45
2022-10-08T00:37:03.114Z,11.37
2022-10-08T00:41:07.485Z,11.33
2022-10-08T00:45:13.271Z,11.37
2022-10-08T00:49:20.116Z,11.35
2022-10-08T00:53:22.906Z,11.35
2022-10-08T00:57:29.068Z,11.24
2022-10-08T01:01:31.906Z,11.31
2022-10-08T01:05:45.337Z,11.28
2022-10-08T01:09:56.983Z,11.26
2022-10-08T01:14:13.733Z,11.28
2022-10-08T01:18:26.145Z,11.29
2022-10-08T01:22:49.888Z,11.34
2022-10-08T01:26:58.587Z,11.50
2022-10-08T01:31:08.207Z,11.51
2022-10-08T01:35:15.119Z,11.56
2022-10-08T01:39:20.835Z,11.50
2022-10-08T01:43:26.322Z,11.53
2022-10-08T01:47:32.305Z,11.53
2022-10-08T01:57:03.262Z,11.55
2022-10-08T02:01:12.607Z,11.66
2022-10-08T02:05:17.121Z,11.71
2022-10-08T02:09:20.010Z,11.73
2022-10-08T02:13:23.447Z,11.83
2022-10-08T02:17:36.622Z,11.88
2022-10-08T02:21:41.650Z,11.97
2022-10-08T02:25:50.506Z,12.06
2022-10-08T02:30:03.755Z,12.11
2022-10-08T02:34:12.819Z,12.21
2022-10-08T02:38:22.428Z,12.29
2022-10-08T02:42:27.790Z,12.36
2022-10-08T02:46:36.423Z,12.39
2022-10-08T02:50:43.362Z,12.41
2022-10-08T02:54:51.410Z,12.47
2022-10-08T02:58:54.550Z,12.47
2022-10-08T03:03:03.833Z,12.46
2022-10-08T03:07:07.277Z,12.45
2022-10-08T03:11:12.569Z,12.32
2022-10-08T03:15:16.077Z,12.26
2022-10-08T03:19:20.155Z,12.05
2022-10-08T03:23:23.028Z,11.85
2022-10-08T03:27:27.226Z,11.61
2022-10-08T03:31:30.369Z,11.59
2022-10-08T03:35:33.329Z,11.53
2022-10-08T03:39:36.149Z,11.39
2022-10-08T03:43:40.765Z,11.35
2022-10-08T03:47:43.723Z,11.32
2022-10-08T03:51:46.456Z,11.37
2022-10-08T03:55:49.577Z,11.40
2022-10-08T03:59:54.037Z,11.41
2022-10-08T04:03:56.886Z,11.36
2022-10-08T04:07:59.753Z,11.39
2022-10-08T04:12:02.852Z,11.39
2022-10-08T04:16:08.212Z,11.41
2022-10-08T04:20:11.133Z,11.42
2022-10-08T04:24:14.130Z,11.44
2022-10-08T04:28:17.182Z,11.46
2022-10-08T04:32:21.458Z,11.51
2022-10-08T04:36:25.730Z,11.50
2022-10-08T04:40:28.464Z,11.53
2022-10-08T04:44:31.371Z,11.56
2022-10-08T04:48:35.800Z,11.58
2022-10-08T04:52:38.612Z,11.58
2022-10-08T04:56:41.341Z,11.61
2022-10-08T05:00:44.106Z,11.60
2022-10-08T05:04:48.160Z,11.61
2022-10-08T05:08:51.103Z,11.59
2022-10-08T05:12:53.990Z,11.59
2022-10-08T05:16:56.694Z,11.62
2022-10-08T05:21:05.216Z,11.60
2022-10-08T05:25:08.824Z,11.56
2022-10-08T05:29:12.321Z,11.56
2022-10-08T05:33:15.035Z,11.56
2022-10-08T05:37:19.328Z,11.52
2022-10-08T05:41:24.144Z,11.53
2022-10-08T05:45:27.127Z,11.61
2022-10-08T05:49:29.918Z,11.63
2022-10-08T05:53:35.843Z,11.71
2022-10-08T05:57:38.570Z,11.73
2022-10-08T06:01:41.397Z,11.77
2022-10-08T06:05:44.064Z,11.77
2022-10-08T06:09:48.267Z,11.82
2022-10-08T06:13:53.292Z,11.87
2022-10-08T06:17:57.424Z,11.87
2022-10-08T06:22:00.302Z,11.88
2022-10-08T06:26:05.776Z,11.91
2022-10-08T06:30:09.784Z,11.97
2022-10-08T06:34:12.758Z,11.98
2022-10-08T06:38:15.629Z,11.99
2022-10-08T06:42:20.130Z,12.02
2022-10-08T06:46:23.298Z,12.04
2022-10-08T06:50:26.343Z,12.12
2022-10-08T06:54:29.105Z,12.14
2022-10-08T06:58:35.770Z,12.22
2022-10-08T07:02:38.612Z,12.31
2022-10-08T07:06:41.453Z,12.46
2022-10-08T07:10:44.266Z,12.63
2022-10-08T07:14:48.344Z,12.69
2022-10-08T07:18:53.144Z,12.61
2022-10-08T07:22:56.009Z,12.60
2022-10-08T07:26:58.813Z,12.63
2022-10-08T07:31:06.033Z,12.76
2022-10-08T07:35:10.573Z,13.06
2022-10-08T07:39:15.177Z,13.55
2022-10-08T07:43:19.847Z,14.01
2022-10-08T07:47:24.000Z,14.04
2022-10-08T07:51:28.057Z,13.99
2022-10-08T07:55:30.749Z,14.54
2022-10-08T07:59:34.010Z,14.44
2022-10-08T08:03:38.459Z,14.10
2022-10-08T08:07:41.251Z,14.17
2022-10-08T08:11:43.980Z,14.00
2022-10-08T08:15:46.742Z,14.26
2022-10-08T08:19:50.857Z,14.41
2022-10-08T08:23:55.391Z,14.49
2022-10-08T08:27:58.141Z,15.16
2022-10-08T08:32:01.040Z,15.79
2022-10-08T08:36:08.619Z,15.56
2022-10-08T08:40:12.323Z,16.13
2022-10-08T08:44:22.073Z,16.56
2022-10-08T08:48:28.609Z,15.94
2022-10-08T08:52:38.947Z,16.63
2022-10-08T08:56:42.211Z,15.54
2022-10-08T09:00:52.014Z,14.77
2022-10-08T09:04:58.297Z,14.58
2022-10-08T09:09:06.733Z,14.55
2022-10-08T09:13:18.875Z,14.20
2022-10-08T09:17:25.953Z,14.66
2022-10-08T09:21:32.577Z,14.36
2022-10-08T09:25:38.279Z,14.81
2022-10-08T09:29:41.068Z,14.84
2022-10-08T09:33:43.871Z,16.56
2022-10-08T09:37:47.754Z,17.61
2022-10-08T09:42:14.226Z,17.83
2022-10-08T09:46:30.503Z,15.33
2022-10-08T09:50:33.353Z,14.92
2022-10-08T09:54:42.914Z,15.49
2022-10-08T09:58:54.202Z,14.61
2022-10-08T10:02:58.696Z,14.77
2022-10-08T10:07:01.990Z,14.68
2022-10-08T10:11:05.163Z,14.63
2022-10-08T10:15:16.695Z,14.50
2022-10-08T10:19:23.577Z,15.18
2022-10-08T10:23:32.966Z,17.37
2022-10-08T10:27:39.603Z,18.31
2022-10-08T10:31:49.506Z,18.87
2022-10-08T10:35:57.306Z,18.40
2022-10-08T10:40:17.377Z,16.46
2022-10-08T10:44:25.066Z,14.62
2022-10-08T10:48:30.375Z,14.40
2022-10-08T10:52:49.912Z,14.70
2022-10-08T10:56:57.986Z,15.89
2022-10-08T11:01:09.238Z,14.88
2022-10-08T11:05:20.090Z,15.43
2022-10-08T11:09:37.989Z,16.38
2022-10-08T11:13:56.907Z,17.53
2022-10-08T11:18:13.930Z,18.76
2022-10-08T11:22:24.903Z,17.94
2022-10-08T11:26:36.955Z,18.94
2022-10-08T11:30:48.031Z,18.90
2022-10-08T11:34:57.451Z,19.08
2022-10-08T11:39:14.622Z,19.84
2022-10-08T11:43:25.502Z,19.63
2022-10-08T11:47:49.631Z,16.11
2022-10-08T11:51:53.219Z,16.32
2022-10-08T11:56:00.030Z,16.37
2022-10-08T12:00:08.736Z,16.81
2022-10-08T12:04:21.098Z,15.62
2022-10-08T12:08:50.790Z,15.13
2022-10-08T12:13:26.582Z,15.21
2022-10-08T12:17:54.026Z,15.26
2022-10-08T12:21:56.757Z,17.32
2022-10-08T12:26:13.663Z,18.04
2022-10-08T12:30:17.194Z,19.42
2022-10-08T12:34:22.870Z,19.60
2022-10-08T12:38:39.458Z,19.90
2022-10-08T12:42:42.585Z,19.54
2022-10-08T12:46:55.197Z,19.28
2022-10-08T12:51:10.299Z,19.72
2022-10-08T12:55:17.349Z,18.73
2022-10-08T12:59:21.953Z,18.83
2022-10-08T13:03:25.579Z,17.78
2022-10-08T13:07:31.774Z,17.66
2022-10-08T13:11:34.840Z,16.64
2022-10-08T13:15:37.663Z,16.91
2022-10-08T13:19:41.556Z,16.75
2022-10-08T13:23:46.058Z,16.79
2022-10-08T13:28:08.682Z,16.58
2022-10-08T13:32:21.012Z,16.01
2022-10-08T13:36:24.329Z,16.85
2022-10-08T13:40:28.889Z,17.75
2022-10-08T13:44:33.354Z,19.30
2022-10-08T13:48:36.169Z,20.58
2022-10-08T13:52:44.263Z,20.76
2022-10-08T13:56:48.337Z,20.35
2022-10-08T14:00:51.364Z,19.86
2022-10-08T14:04:54.106Z,20.87
2022-10-08T14:08:58.933Z,20.55
2022-10-08T14:13:03.352Z,20.15
2022-10-08T14:17:06.471Z,19.50
2022-10-08T14:21:11.717Z,19.76
2022-10-08T14:25:18.109Z,19.43
2022-10-08T14:29:22.318Z,18.87
2022-10-08T14:33:25.370Z,19.84
2022-10-08T14:37:28.049Z,19.86
2022-10-08T14:41:31.006Z,19.35
2022-10-08T14:45:35.225Z,20.06
2022-10-08T14:49:39.020Z,19.99
2022-10-08T14:53:43.087Z,19.97
2022-10-08T14:57:45.829Z,19.90
2022-10-08T15:01:50.020Z,19.84
2022-10-08T15:05:53.826Z,19.61
2022-10-08T15:09:56.782Z,19.15
2022-10-08T15:13:59.883Z,19.26
2022-10-08T15:18:03.970Z,19.79
2022-10-08T15:22:09.827Z,19.87
2022-10-08T15:26:15.800Z,20.60
2022-10-08T15:30:18.590Z,19.49
2022-10-08T15:34:23.019Z,19.87
2022-10-08T15:38:25.954Z,19.45
2022-10-08T15:42:30.886Z,18.72
2022-10-08T15:46:33.611Z,18.40
2022-10-08T15:50:39.395Z,18.28
2022-10-08T15:54:43.255Z,17.97
2022-10-08T15:58:50.741Z,17.95
2022-10-08T16:02:56.862Z,17.69
2022-10-08T16:07:01.421Z,17.85
2022-10-08T16:11:12.216Z,18.04
2022-10-08T16:15:15.197Z,18.15
2022-10-08T16:19:19.786Z,17.51
2022-10-08T16:23:23.937Z,17.45
2022-10-08T16:27:26.731Z,16.70
2022-10-08T16:31:30.877Z,16.50
2022-10-08T16:35:36.369Z,16.41
2022-10-08T16:39:40.441Z,15.64
2022-10-08T16:43:46.349Z,15.24
2022-10-08T16:47:49.047Z,15.07
2022-10-08T16:51:53.112Z,14.74
2022-10-08T16:55:57.188Z,14.30
2022-10-08T17:00:00.675Z,13.89
2022-10-08T17:04:06.594Z,13.70
2022-10-08T17:08:09.357Z,13.48
2022-10-08T17:12:13.453Z,13.24
2022-10-08T17:16:19.164Z,13.05
2022-10-08T17:20:22.461Z,12.86
2022-10-08T17:24:25.782Z,12.44
2022-10-08T17:28:31.667Z,12.27
2022-10-08T17:32:34.493Z,12.32
2022-10-08T17:36:39.264Z,12.07
2022-10-08T17:40:42.448Z,11.80
2022-10-08T17:44:46.671Z,11.60
2022-10-08T17:48:49.657Z,11.34
2022-10-08T17:52:52.362Z,11.16
2022-10-08T17:56:55.291Z,10.97
2022-10-08T18:01:06.932Z,10.86
2022-10-08T18:05:10.185Z,10.66
2022-10-08T18:09:14.511Z,10.53
2022-10-08T18:13:17.422Z,10.60
2022-10-08T18:17:21.468Z,10.62
2022-10-08T18:21:24.902Z,10.43
2022-10-08T18:25:27.639Z,10.17
2022-10-08T18:29:30.482Z,10.13
2022-10-08T18:33:36.004Z,10.05
2022-10-08T18:37:38.801Z,9.89
2022-10-08T18:41:44.114Z,9.97
2022-10-08T18:45:46.979Z,9.96
2022-10-08T18:49:51.108Z,9.73
2022-10-08T18:53:55.225Z,9.70
2022-10-08T18:57:57.930Z,9.45
2022-10-08T19:02:00.991Z,9.36
2022-10-08T19:06:07.653Z,9.21
2022-10-08T19:10:11.140Z,9.11
2022-10-08T19:14:17.152Z,8.99
2022-10-08T19:18:20.024Z,9.02
2022-10-08T19:22:24.098Z,9.14
2022-10-08T19:26:28.920Z,9.13
2022-10-08T19:30:34.249Z,8.97
2022-10-08T19:34:37.214Z,8.77
2022-10-08T19:38:41.338Z,8.65
2022-10-08T19:42:44.328Z,8.56
2022-10-08T19:46:47.616Z,8.56
2022-10-08T19:50:50.566Z,8.56
2022-10-08T19:54:54.702Z,8.34
2022-10-08T19:58:57.907Z,8.33
2022-10-08T20:03:00.717Z,8.23
2022-10-08T20:07:04.485Z,8.10
2022-10-08T20:11:10.346Z,8.07
2022-10-08T20:15:13.177Z,8.12
2022-10-08T20:19:18.426Z,8.29
2022-10-08T20:23:21.231Z,8.18
2022-10-08T20:27:25.370Z,8.15
2022-10-08T20:31:30.290Z,8.05
2022-10-08T20:35:36.887Z,8.08
2022-10-08T20:39:39.702Z,7.98
2022-10-08T20:43:45.226Z,7.88
2022-10-08T20:47:47.941Z,7.88
2022-10-08T20:51:50.839Z,7.73
2022-10-08T20:55:53.767Z,7.63
2022-10-08T20:59:58.102Z,7.59
2022-10-08T21:04:01.544Z,7.53
2022-10-08T21:08:04.535Z,7.50
2022-10-08T21:12:07.415Z,7.36
2022-10-08T21:16:14.204Z,7.52
2022-10-08T21:20:17.083Z,7.63
2022-10-08T21:24:19.994Z,7.49
2022-10-08T21:28:22.965Z,7.23
2022-10-08T21:32:27.092Z,7.14
2022-10-08T21:36:31.903Z,7.05
2022-10-08T21:40:34.831Z,6.97
2022-10-08T21:44:37.586Z,6.96
2022-10-08T21:48:42.467Z,6.90
2022-10-08T21:52:45.399Z,7.03
2022-10-08T21:56:48.356Z,6.90
2022-10-08T22:00:51.289Z,7.04
2022-10-08T22:04:55.434Z,7.08
2022-10-08T22:08:58.663Z,6.95
2022-10-08T22:13:01.539Z,6.64
2022-10-08T22:17:04.313Z,6.82
2022-10-08T22:21:10.610Z,6.78
2022-10-08T22:25:13.655Z,6.62
2022-10-08T22:29:17.170Z,6.46
2022-10-08T22:33:20.374Z,6.70
2022-10-08T22:37:27.276Z,6.63
2022-10-08T22:41:33.011Z,6.31
2022-10-08T22:45:39.051Z,6.39
2022-10-08T22:49:41.880Z,6.47
2022-10-08T22:53:46.782Z,6.31
2022-10-08T22:57:49.571Z,6.18
2022-10-08T23:01:52.448Z,6.20
2022-10-08T23:06:02.831Z,6.19
2022-10-08T23:10:07.888Z,6.06
2022-10-08T23:14:11.299Z,6.25
2022-10-08T23:18:14.403Z,6.28
2022-10-08T23:22:17.169Z,6.01
2022-10-08T23:26:22.430Z,5.84
2022-10-08T23:30:42.650Z,5.83
2022-10-08T23:34:46.427Z,5.85
2022-10-08T23:38:49.647Z,5.84
2022-10-08T23:42:53.812Z,5.73
2022-10-08T23:46:56.755Z,5.86
2022-10-08T23:50:59.879Z,5.96
2022-10-08T23:55:02.616Z,5.91
2022-10-08T23:59:06.864Z,5.76
